sensor_id;sensor_type;location;lat;lon;timestamp;P1;durP1;ratioP1;P2;durP2;ratioP2
20294;SDS011;10306;52.128;5.208;2023-02-08T00:00:31;19.53;;;11.40;;
20294;SDS011;10306;52.128;5.208;2023-02-08T00:02:57;20.67;;;11.20;;
20294;SDS011;10306;52.128;5.208;2023-02-08T00:05:23;22.83;;;12.67;;
20294;SDS011;10306;52.128;5.208;2023-02-08T00:07:49;20.40;;;10.73;;
20294;SDS011;10306;52.128;5.208;2023-02-08T00:10:15;21.17;;;12.03;;
20294;SDS011;10306;52.128;5.208;2023-02-08T00:12:41;16.33;;;10.87;;
20294;SDS011;10306;52.128;5.208;2023-02-08T00:15:07;16.97;;;10.73;;
20294;SDS011;10306;52.128;5.208;2023-02-08T00:17:33;16.07;;;10.37;;
20294;SDS011;10306;52.128;5.208;2023-02-08T00:19:59;24.53;;;11.43;;
20294;SDS011;10306;52.128;5.208;2023-02-08T00:22:25;19.57;;;11.93;;
20294;SDS011;10306;52.128;5.208;2023-02-08T00:24:51;18.07;;;10.80;;
20294;SDS011;10306;52.128;5.208;2023-02-08T00:27:17;20.73;;;12.23;;
20294;SDS011;10306;52.128;5.208;2023-02-08T00:29:43;18.67;;;11.00;;
20294;SDS011;10306;52.128;5.208;2023-02-08T00:32:09;21.57;;;11.97;;
20294;SDS011;10306;52.128;5.208;2023-02-08T00:34:36;19.30;;;11.60;;
20294;SDS011;10306;52.128;5.208;2023-02-08T00:37:02;16.80;;;11.47;;
20294;SDS011;10306;52.128;5.208;2023-02-08T00:39:28;19.23;;;11.37;;
20294;SDS011;10306;52.128;5.208;2023-02-08T00:41:54;19.47;;;12.13;;
20294;SDS011;10306;52.128;5.208;2023-02-08T00:44:20;18.53;;;11.10;;
20294;SDS011;10306;52.128;5.208;2023-02-08T00:46:46;22.07;;;11.00;;
20294;SDS011;10306;52.128;5.208;2023-02-08T00:49:12;18.23;;;11.33;;
20294;SDS011;10306;52.128;5.208;2023-02-08T00:51:38;20.20;;;11.23;;
20294;SDS011;10306;52.128;5.208;2023-02-08T00:54:04;19.80;;;12.40;;
20294;SDS011;10306;52.128;5.208;2023-02-08T00:56:30;20.73;;;11.67;;
20294;SDS011;10306;52.128;5.208;2023-02-08T00:58:56;18.40;;;11.13;;
20294;SDS011;10306;52.128;5.208;2023-02-08T01:01:22;22.37;;;12.40;;
20294;SDS011;10306;52.128;5.208;2023-02-08T01:03:48;19.93;;;11.37;;
20294;SDS011;10306;52.128;5.208;2023-02-08T01:06:15;20.73;;;11.53;;
20294;SDS011;10306;52.128;5.208;2023-02-08T01:08:42;23.03;;;13.03;;
20294;SDS011;10306;52.128;5.208;2023-02-08T01:11:09;24.97;;;12.43;;
20294;SDS011;10306;52.128;5.208;2023-02-08T01:13:37;20.17;;;11.93;;
20294;SDS011;10306;52.128;5.208;2023-02-08T01:16:06;17.13;;;11.43;;
20294;SDS011;10306;52.128;5.208;2023-02-08T01:18:32;21.53;;;12.33;;
20294;SDS011;10306;52.128;5.208;2023-02-08T01:21:03;18.13;;;11.03;;
20294;SDS011;10306;52.128;5.208;2023-02-08T01:23:29;21.97;;;11.97;;
20294;SDS011;10306;52.128;5.208;2023-02-08T01:25:54;18.23;;;11.53;;
20294;SDS011;10306;52.128;5.208;2023-02-08T01:28:20;20.13;;;12.27;;
20294;SDS011;10306;52.128;5.208;2023-02-08T01:30:46;21.20;;;11.43;;
20294;SDS011;10306;52.128;5.208;2023-02-08T01:33:12;23.13;;;12.63;;
20294;SDS011;10306;52.128;5.208;2023-02-08T01:35:38;21.07;;;11.67;;
20294;SDS011;10306;52.128;5.208;2023-02-08T01:38:04;19.60;;;11.57;;
20294;SDS011;10306;52.128;5.208;2023-02-08T01:40:30;18.83;;;11.10;;
20294;SDS011;10306;52.128;5.208;2023-02-08T01:42:56;22.53;;;11.00;;
20294;SDS011;10306;52.128;5.208;2023-02-08T01:45:23;17.90;;;10.87;;
20294;SDS011;10306;52.128;5.208;2023-02-08T01:47:54;19.97;;;11.70;;
20294;SDS011;10306;52.128;5.208;2023-02-08T01:50:22;22.17;;;11.70;;
20294;SDS011;10306;52.128;5.208;2023-02-08T01:52:48;18.30;;;11.07;;
20294;SDS011;10306;52.128;5.208;2023-02-08T01:55:25;21.17;;;10.63;;
20294;SDS011;10306;52.128;5.208;2023-02-08T01:57:53;20.30;;;11.60;;
20294;SDS011;10306;52.128;5.208;2023-02-08T02:00:20;18.20;;;11.03;;
20294;SDS011;10306;52.128;5.208;2023-02-08T02:02:47;22.00;;;11.90;;
20294;SDS011;10306;52.128;5.208;2023-02-08T02:05:16;19.00;;;11.30;;
20294;SDS011;10306;52.128;5.208;2023-02-08T02:07:42;17.37;;;11.00;;
20294;SDS011;10306;52.128;5.208;2023-02-08T02:12:34;20.67;;;11.10;;
20294;SDS011;10306;52.128;5.208;2023-02-08T02:15:01;21.43;;;11.97;;
20294;SDS011;10306;52.128;5.208;2023-02-08T02:17:28;17.23;;;11.23;;
20294;SDS011;10306;52.128;5.208;2023-02-08T02:20:17;20.53;;;12.10;;
20294;SDS011;10306;52.128;5.208;2023-02-08T02:23:02;16.57;;;10.53;;
20294;SDS011;10306;52.128;5.208;2023-02-08T02:25:47;20.47;;;11.37;;
20294;SDS011;10306;52.128;5.208;2023-02-08T02:31:00;19.23;;;11.93;;
20294;SDS011;10306;52.128;5.208;2023-02-08T02:36:12;18.00;;;10.40;;
20294;SDS011;10306;52.128;5.208;2023-02-08T02:41:25;22.10;;;12.07;;
20294;SDS011;10306;52.128;5.208;2023-02-08T02:44:15;20.93;;;11.07;;
20294;SDS011;10306;52.128;5.208;2023-02-08T02:46:45;19.07;;;10.53;;
20294;SDS011;10306;52.128;5.208;2023-02-08T02:51:53;21.83;;;10.93;;
20294;SDS011;10306;52.128;5.208;2023-02-08T02:56:49;20.87;;;11.17;;
20294;SDS011;10306;52.128;5.208;2023-02-08T02:59:16;16.90;;;11.40;;
20294;SDS011;10306;52.128;5.208;2023-02-08T03:01:43;18.87;;;11.67;;
20294;SDS011;10306;52.128;5.208;2023-02-08T03:04:17;16.43;;;10.00;;
20294;SDS011;10306;52.128;5.208;2023-02-08T03:09:29;19.03;;;10.87;;
20294;SDS011;10306;52.128;5.208;2023-02-08T03:14:47;19.73;;;10.73;;
20294;SDS011;10306;52.128;5.208;2023-02-08T03:17:31;16.73;;;10.13;;
20294;SDS011;10306;52.128;5.208;2023-02-08T03:20:17;17.13;;;10.83;;
20294;SDS011;10306;52.128;5.208;2023-02-08T03:25:19;15.07;;;10.77;;
20294;SDS011;10306;52.128;5.208;2023-02-08T03:27:54;18.43;;;11.53;;
20294;SDS011;10306;52.128;5.208;2023-02-08T03:30:33;15.77;;;10.13;;
20294;SDS011;10306;52.128;5.208;2023-02-08T03:33:05;20.57;;;10.67;;
20294;SDS011;10306;52.128;5.208;2023-02-08T03:35:32;18.87;;;10.70;;
20294;SDS011;10306;52.128;5.208;2023-02-08T03:38:00;21.00;;;11.60;;
20294;SDS011;10306;52.128;5.208;2023-02-08T03:40:31;20.17;;;11.40;;
20294;SDS011;10306;52.128;5.208;2023-02-08T03:43:00;19.33;;;10.83;;
20294;SDS011;10306;52.128;5.208;2023-02-08T03:45:32;20.27;;;11.07;;
20294;SDS011;10306;52.128;5.208;2023-02-08T03:48:01;20.17;;;11.10;;
20294;SDS011;10306;52.128;5.208;2023-02-08T03:50:29;19.03;;;10.60;;
20294;SDS011;10306;52.128;5.208;2023-02-08T03:52:57;19.07;;;10.13;;
20294;SDS011;10306;52.128;5.208;2023-02-08T03:55:23;15.87;;;9.93;;
20294;SDS011;10306;52.128;5.208;2023-02-08T04:00:16;15.57;;;10.40;;
20294;SDS011;10306;52.128;5.208;2023-02-08T04:02:54;18.10;;;10.33;;
20294;SDS011;10306;52.128;5.208;2023-02-08T04:05:21;14.30;;;10.37;;
20294;SDS011;10306;52.128;5.208;2023-02-08T04:07:48;18.20;;;11.07;;
20294;SDS011;10306;52.128;5.208;2023-02-08T04:10:14;14.83;;;10.23;;
20294;SDS011;10306;52.128;5.208;2023-02-08T04:12:40;19.67;;;10.77;;
20294;SDS011;10306;52.128;5.208;2023-02-08T04:15:06;20.53;;;10.73;;
20294;SDS011;10306;52.128;5.208;2023-02-08T04:17:32;16.33;;;9.97;;
20294;SDS011;10306;52.128;5.208;2023-02-08T04:19:58;21.90;;;10.80;;
20294;SDS011;10306;52.128;5.208;2023-02-08T04:22:24;17.80;;;10.43;;
20294;SDS011;10306;52.128;5.208;2023-02-08T04:24:50;18.20;;;10.03;;
20294;SDS011;10306;52.128;5.208;2023-02-08T04:27:16;18.27;;;11.43;;
20294;SDS011;10306;52.128;5.208;2023-02-08T04:29:42;19.03;;;11.50;;
20294;SDS011;10306;52.128;5.208;2023-02-08T04:32:08;17.83;;;9.77;;
20294;SDS011;10306;52.128;5.208;2023-02-08T04:34:36;17.43;;;11.07;;
20294;SDS011;10306;52.128;5.208;2023-02-08T04:37:02;18.40;;;10.87;;
20294;SDS011;10306;52.128;5.208;2023-02-08T04:39:28;13.97;;;9.20;;
20294;SDS011;10306;52.128;5.208;2023-02-08T04:41:55;20.73;;;10.70;;
20294;SDS011;10306;52.128;5.208;2023-02-08T04:44:21;18.97;;;10.23;;
20294;SDS011;10306;52.128;5.208;2023-02-08T04:46:47;19.93;;;10.63;;
20294;SDS011;10306;52.128;5.208;2023-02-08T04:49:13;15.67;;;9.17;;
20294;SDS011;10306;52.128;5.208;2023-02-08T04:51:39;18.83;;;10.53;;
20294;SDS011;10306;52.128;5.208;2023-02-08T04:54:05;16.30;;;10.17;;
20294;SDS011;10306;52.128;5.208;2023-02-08T04:56:31;15.80;;;9.70;;
20294;SDS011;10306;52.128;5.208;2023-02-08T04:58:57;16.33;;;9.83;;
20294;SDS011;10306;52.128;5.208;2023-02-08T05:01:23;15.30;;;10.17;;
20294;SDS011;10306;52.128;5.208;2023-02-08T05:03:49;18.93;;;10.27;;
20294;SDS011;10306;52.128;5.208;2023-02-08T05:06:15;14.60;;;9.67;;
20294;SDS011;10306;52.128;5.208;2023-02-08T05:08:41;17.60;;;9.77;;
20294;SDS011;10306;52.128;5.208;2023-02-08T05:11:07;21.70;;;10.63;;
20294;SDS011;10306;52.128;5.208;2023-02-08T05:13:33;17.87;;;9.67;;
20294;SDS011;10306;52.128;5.208;2023-02-08T05:15:58;16.07;;;10.40;;
20294;SDS011;10306;52.128;5.208;2023-02-08T05:18:24;16.97;;;10.33;;
20294;SDS011;10306;52.128;5.208;2023-02-08T05:20:54;16.97;;;10.50;;
20294;SDS011;10306;52.128;5.208;2023-02-08T05:23:20;21.97;;;10.47;;
20294;SDS011;10306;52.128;5.208;2023-02-08T05:25:46;17.73;;;10.10;;
20294;SDS011;10306;52.128;5.208;2023-02-08T05:28:12;18.20;;;10.33;;
20294;SDS011;10306;52.128;5.208;2023-02-08T05:30:38;18.60;;;10.47;;
20294;SDS011;10306;52.128;5.208;2023-02-08T05:33:04;16.93;;;10.30;;
20294;SDS011;10306;52.128;5.208;2023-02-08T05:35:30;16.63;;;10.17;;
20294;SDS011;10306;52.128;5.208;2023-02-08T05:37:56;17.80;;;10.10;;
20294;SDS011;10306;52.128;5.208;2023-02-08T05:40:22;12.90;;;8.70;;
20294;SDS011;10306;52.128;5.208;2023-02-08T05:42:47;16.97;;;10.77;;
20294;SDS011;10306;52.128;5.208;2023-02-08T05:45:13;17.43;;;9.37;;
20294;SDS011;10306;52.128;5.208;2023-02-08T05:47:39;16.37;;;9.23;;
20294;SDS011;10306;52.128;5.208;2023-02-08T05:50:06;18.73;;;10.40;;
20294;SDS011;10306;52.128;5.208;2023-02-08T05:52:32;18.53;;;9.67;;
20294;SDS011;10306;52.128;5.208;2023-02-08T05:54:58;15.73;;;9.73;;
20294;SDS011;10306;52.128;5.208;2023-02-08T05:57:24;18.97;;;9.93;;
20294;SDS011;10306;52.128;5.208;2023-02-08T05:59:50;18.50;;;10.10;;
20294;SDS011;10306;52.128;5.208;2023-02-08T06:02:16;15.23;;;9.63;;
20294;SDS011;10306;52.128;5.208;2023-02-08T06:04:42;19.97;;;10.70;;
20294;SDS011;10306;52.128;5.208;2023-02-08T06:07:08;17.13;;;9.60;;
20294;SDS011;10306;52.128;5.208;2023-02-08T06:09:34;16.57;;;9.80;;
20294;SDS011;10306;52.128;5.208;2023-02-08T06:12:00;14.27;;;10.03;;
20294;SDS011;10306;52.128;5.208;2023-02-08T06:14:25;14.50;;;9.33;;
20294;SDS011;10306;52.128;5.208;2023-02-08T06:16:51;14.73;;;9.97;;
20294;SDS011;10306;52.128;5.208;2023-02-08T06:19:17;20.20;;;10.60;;
20294;SDS011;10306;52.128;5.208;2023-02-08T06:21:43;18.07;;;9.90;;
20294;SDS011;10306;52.128;5.208;2023-02-08T06:24:09;17.20;;;9.27;;
20294;SDS011;10306;52.128;5.208;2023-02-08T06:26:36;19.97;;;9.60;;
20294;SDS011;10306;52.128;5.208;2023-02-08T06:29:02;22.03;;;11.00;;
20294;SDS011;10306;52.128;5.208;2023-02-08T06:31:28;18.10;;;9.73;;
20294;SDS011;10306;52.128;5.208;2023-02-08T06:33:54;17.07;;;10.20;;
20294;SDS011;10306;52.128;5.208;2023-02-08T06:36:20;20.60;;;11.77;;
20294;SDS011;10306;52.128;5.208;2023-02-08T06:38:46;20.07;;;11.77;;
20294;SDS011;10306;52.128;5.208;2023-02-08T06:41:12;19.27;;;10.97;;
20294;SDS011;10306;52.128;5.208;2023-02-08T06:43:38;20.33;;;12.43;;
20294;SDS011;10306;52.128;5.208;2023-02-08T06:46:04;18.53;;;11.57;;
20294;SDS011;10306;52.128;5.208;2023-02-08T06:48:32;19.33;;;10.87;;
20294;SDS011;10306;52.128;5.208;2023-02-08T06:50:58;22.30;;;11.33;;
20294;SDS011;10306;52.128;5.208;2023-02-08T06:53:24;17.43;;;10.93;;
20294;SDS011;10306;52.128;5.208;2023-02-08T06:55:50;25.17;;;11.13;;
20294;SDS011;10306;52.128;5.208;2023-02-08T06:58:16;18.93;;;10.10;;
20294;SDS011;10306;52.128;5.208;2023-02-08T07:00:42;18.47;;;10.90;;
20294;SDS011;10306;52.128;5.208;2023-02-08T07:03:12;16.63;;;10.53;;
20294;SDS011;10306;52.128;5.208;2023-02-08T07:05:38;17.43;;;10.13;;
20294;SDS011;10306;52.128;5.208;2023-02-08T07:08:04;19.03;;;10.83;;
20294;SDS011;10306;52.128;5.208;2023-02-08T07:10:31;17.07;;;9.57;;
20294;SDS011;10306;52.128;5.208;2023-02-08T07:12:57;14.80;;;9.57;;
20294;SDS011;10306;52.128;5.208;2023-02-08T07:15:23;13.83;;;9.30;;
20294;SDS011;10306;52.128;5.208;2023-02-08T07:17:49;15.47;;;9.37;;
20294;SDS011;10306;52.128;5.208;2023-02-08T07:20:15;19.60;;;10.43;;
20294;SDS011;10306;52.128;5.208;2023-02-08T07:22:41;19.43;;;10.80;;
20294;SDS011;10306;52.128;5.208;2023-02-08T07:25:07;16.83;;;9.63;;
20294;SDS011;10306;52.128;5.208;2023-02-08T07:27:33;16.17;;;9.70;;
20294;SDS011;10306;52.128;5.208;2023-02-08T07:29:59;17.30;;;9.73;;
20294;SDS011;10306;52.128;5.208;2023-02-08T07:32:26;23.00;;;10.13;;
20294;SDS011;10306;52.128;5.208;2023-02-08T07:34:52;13.50;;;9.33;;
20294;SDS011;10306;52.128;5.208;2023-02-08T07:37:18;12.47;;;9.10;;
20294;SDS011;10306;52.128;5.208;2023-02-08T07:39:44;16.37;;;9.67;;
20294;SDS011;10306;52.128;5.208;2023-02-08T07:42:10;20.10;;;9.93;;
20294;SDS011;10306;52.128;5.208;2023-02-08T07:44:37;15.33;;;9.20;;
20294;SDS011;10306;52.128;5.208;2023-02-08T07:47:03;17.63;;;10.30;;
20294;SDS011;10306;52.128;5.208;2023-02-08T07:49:30;14.93;;;10.00;;
20294;SDS011;10306;52.128;5.208;2023-02-08T07:51:56;18.87;;;9.67;;
20294;SDS011;10306;52.128;5.208;2023-02-08T07:54:21;17.53;;;11.00;;
20294;SDS011;10306;52.128;5.208;2023-02-08T07:56:47;17.17;;;10.33;;
20294;SDS011;10306;52.128;5.208;2023-02-08T07:59:13;22.47;;;9.93;;
20294;SDS011;10306;52.128;5.208;2023-02-08T08:01:40;17.10;;;8.97;;
20294;SDS011;10306;52.128;5.208;2023-02-08T08:04:06;16.73;;;10.43;;
20294;SDS011;10306;52.128;5.208;2023-02-08T08:06:32;14.47;;;10.07;;
20294;SDS011;10306;52.128;5.208;2023-02-08T08:08:58;15.60;;;10.63;;
20294;SDS011;10306;52.128;5.208;2023-02-08T08:11:24;18.07;;;10.33;;
20294;SDS011;10306;52.128;5.208;2023-02-08T08:13:50;16.63;;;10.23;;
20294;SDS011;10306;52.128;5.208;2023-02-08T08:16:16;15.83;;;10.63;;
20294;SDS011;10306;52.128;5.208;2023-02-08T08:18:42;28.13;;;11.73;;
20294;SDS011;10306;52.128;5.208;2023-02-08T08:21:08;17.33;;;10.27;;
20294;SDS011;10306;52.128;5.208;2023-02-08T08:23:35;16.70;;;9.87;;
20294;SDS011;10306;52.128;5.208;2023-02-08T08:26:07;17.63;;;10.20;;
20294;SDS011;10306;52.128;5.208;2023-02-08T08:28:34;21.17;;;11.07;;
20294;SDS011;10306;52.128;5.208;2023-02-08T08:31:00;16.07;;;10.33;;
20294;SDS011;10306;52.128;5.208;2023-02-08T08:33:26;17.10;;;9.90;;
20294;SDS011;10306;52.128;5.208;2023-02-08T08:35:52;18.80;;;10.67;;
20294;SDS011;10306;52.128;5.208;2023-02-08T08:38:18;20.80;;;10.47;;
20294;SDS011;10306;52.128;5.208;2023-02-08T08:40:44;18.07;;;10.90;;
20294;SDS011;10306;52.128;5.208;2023-02-08T08:43:09;16.83;;;10.83;;
20294;SDS011;10306;52.128;5.208;2023-02-08T08:45:35;17.80;;;10.87;;
20294;SDS011;10306;52.128;5.208;2023-02-08T08:48:02;13.80;;;10.13;;
20294;SDS011;10306;52.128;5.208;2023-02-08T08:50:29;19.27;;;10.40;;
20294;SDS011;10306;52.128;5.208;2023-02-08T08:52:55;14.63;;;9.93;;
20294;SDS011;10306;52.128;5.208;2023-02-08T08:55:20;17.87;;;10.80;;
20294;SDS011;10306;52.128;5.208;2023-02-08T08:57:46;16.77;;;10.37;;
20294;SDS011;10306;52.128;5.208;2023-02-08T09:00:13;15.63;;;10.00;;
20294;SDS011;10306;52.128;5.208;2023-02-08T09:02:39;17.93;;;10.47;;
20294;SDS011;10306;52.128;5.208;2023-02-08T09:05:05;16.17;;;10.20;;
20294;SDS011;10306;52.128;5.208;2023-02-08T09:07:32;14.33;;;9.63;;
20294;SDS011;10306;52.128;5.208;2023-02-08T09:09:58;18.17;;;9.70;;
20294;SDS011;10306;52.128;5.208;2023-02-08T09:12:24;15.80;;;9.33;;
20294;SDS011;10306;52.128;5.208;2023-02-08T09:14:50;17.63;;;10.47;;
20294;SDS011;10306;52.128;5.208;2023-02-08T09:17:16;13.30;;;9.73;;
20294;SDS011;10306;52.128;5.208;2023-02-08T09:19:42;17.30;;;10.53;;
20294;SDS011;10306;52.128;5.208;2023-02-08T09:22:09;13.73;;;9.23;;
20294;SDS011;10306;52.128;5.208;2023-02-08T09:24:35;15.70;;;9.40;;
20294;SDS011;10306;52.128;5.208;2023-02-08T09:27:01;15.37;;;9.83;;
20294;SDS011;10306;52.128;5.208;2023-02-08T09:29:27;14.20;;;9.40;;
20294;SDS011;10306;52.128;5.208;2023-02-08T09:31:54;10.27;;;8.43;;
20294;SDS011;10306;52.128;5.208;2023-02-08T09:34:20;14.73;;;9.27;;
20294;SDS011;10306;52.128;5.208;2023-02-08T09:36:46;14.73;;;8.47;;
20294;SDS011;10306;52.128;5.208;2023-02-08T09:39:13;15.63;;;9.10;;
20294;SDS011;10306;52.128;5.208;2023-02-08T09:44:37;11.97;;;7.97;;
20294;SDS011;10306;52.128;5.208;2023-02-08T09:49:41;13.87;;;9.17;;
20294;SDS011;10306;52.128;5.208;2023-02-08T09:52:10;13.70;;;9.30;;
20294;SDS011;10306;52.128;5.208;2023-02-08T09:54:38;12.17;;;8.23;;
20294;SDS011;10306;52.128;5.208;2023-02-08T09:57:09;12.37;;;8.13;;
20294;SDS011;10306;52.128;5.208;2023-02-08T09:59:36;12.83;;;7.80;;
20294;SDS011;10306;52.128;5.208;2023-02-08T10:02:13;13.20;;;8.17;;
20294;SDS011;10306;52.128;5.208;2023-02-08T10:07:09;14.27;;;8.73;;
20294;SDS011;10306;52.128;5.208;2023-02-08T10:09:35;12.30;;;8.50;;
20294;SDS011;10306;52.128;5.208;2023-02-08T10:14:50;13.00;;;7.93;;
20294;SDS011;10306;52.128;5.208;2023-02-08T10:17:31;12.90;;;7.10;;
20294;SDS011;10306;52.128;5.208;2023-02-08T10:20:03;11.40;;;7.97;;
20294;SDS011;10306;52.128;5.208;2023-02-08T10:22:39;15.17;;;7.20;;
20294;SDS011;10306;52.128;5.208;2023-02-08T10:30:19;8.87;;;6.73;;
20294;SDS011;10306;52.128;5.208;2023-02-08T10:32:53;10.13;;;7.07;;
20294;SDS011;10306;52.128;5.208;2023-02-08T10:35:26;8.93;;;7.17;;
20294;SDS011;10306;52.128;5.208;2023-02-08T10:37:53;10.30;;;7.23;;
20294;SDS011;10306;52.128;5.208;2023-02-08T10:40:31;9.60;;;6.23;;
20294;SDS011;10306;52.128;5.208;2023-02-08T10:43:18;8.07;;;7.07;;
20294;SDS011;10306;52.128;5.208;2023-02-08T10:46:03;9.53;;;7.00;;
20294;SDS011;10306;52.128;5.208;2023-02-08T10:51:01;7.40;;;6.10;;
20294;SDS011;10306;52.128;5.208;2023-02-08T10:53:27;8.27;;;6.83;;
20294;SDS011;10306;52.128;5.208;2023-02-08T10:55:53;7.37;;;6.03;;
20294;SDS011;10306;52.128;5.208;2023-02-08T10:58:20;12.57;;;6.53;;
20294;SDS011;10306;52.128;5.208;2023-02-08T11:00:46;8.37;;;6.50;;
20294;SDS011;10306;52.128;5.208;2023-02-08T11:05:39;9.53;;;6.90;;
20294;SDS011;10306;52.128;5.208;2023-02-08T11:10:31;7.53;;;5.87;;
20294;SDS011;10306;52.128;5.208;2023-02-08T11:12:58;9.47;;;6.20;;
20294;SDS011;10306;52.128;5.208;2023-02-08T11:18:29;8.53;;;6.50;;
20294;SDS011;10306;52.128;5.208;2023-02-08T11:20:57;7.67;;;6.53;;
20294;SDS011;10306;52.128;5.208;2023-02-08T11:23:28;7.10;;;6.23;;
20294;SDS011;10306;52.128;5.208;2023-02-08T11:26:11;7.73;;;6.53;;
20294;SDS011;10306;52.128;5.208;2023-02-08T11:28:39;7.03;;;6.33;;
20294;SDS011;10306;52.128;5.208;2023-02-08T11:31:14;7.07;;;6.20;;
20294;SDS011;10306;52.128;5.208;2023-02-08T11:33:44;6.63;;;6.03;;
20294;SDS011;10306;52.128;5.208;2023-02-08T11:36:22;8.57;;;6.60;;
20294;SDS011;10306;52.128;5.208;2023-02-08T11:38:48;7.23;;;5.80;;
20294;SDS011;10306;52.128;5.208;2023-02-08T11:41:15;12.83;;;5.97;;
20294;SDS011;10306;52.128;5.208;2023-02-08T11:43:52;7.53;;;6.00;;
20294;SDS011;10306;52.128;5.208;2023-02-08T11:46:21;6.17;;;5.57;;
20294;SDS011;10306;52.128;5.208;2023-02-08T11:48:48;6.90;;;5.60;;
20294;SDS011;10306;52.128;5.208;2023-02-08T11:51:22;8.03;;;6.00;;
20294;SDS011;10306;52.128;5.208;2023-02-08T11:53:49;6.80;;;6.00;;
20294;SDS011;10306;52.128;5.208;2023-02-08T11:56:17;5.50;;;5.00;;
20294;SDS011;10306;52.128;5.208;2023-02-08T11:59:00;5.70;;;5.20;;
20294;SDS011;10306;52.128;5.208;2023-02-08T12:01:33;5.90;;;5.40;;
20294;SDS011;10306;52.128;5.208;2023-02-08T12:04:00;6.37;;;5.77;;
20294;SDS011;10306;52.128;5.208;2023-02-08T12:11:24;8.57;;;6.57;;
20294;SDS011;10306;52.128;5.208;2023-02-08T12:13:58;8.00;;;6.73;;
20294;SDS011;10306;52.128;5.208;2023-02-08T12:19:02;7.13;;;6.43;;
20294;SDS011;10306;52.128;5.208;2023-02-08T12:21:39;6.63;;;6.03;;
20294;SDS011;10306;52.128;5.208;2023-02-08T12:26:49;7.23;;;6.10;;
20294;SDS011;10306;52.128;5.208;2023-02-08T12:29:21;7.87;;;6.27;;
20294;SDS011;10306;52.128;5.208;2023-02-08T12:37:19;5.80;;;5.40;;
20294;SDS011;10306;52.128;5.208;2023-02-08T12:40:15;6.50;;;5.90;;
20294;SDS011;10306;52.128;5.208;2023-02-08T12:50:52;7.17;;;6.50;;
20294;SDS011;10306;52.128;5.208;2023-02-08T12:53:23;7.50;;;6.60;;
20294;SDS011;10306;52.128;5.208;2023-02-08T12:55:55;6.47;;;5.97;;
20294;SDS011;10306;52.128;5.208;2023-02-08T12:58:39;6.17;;;5.70;;
20294;SDS011;10306;52.128;5.208;2023-02-08T13:01:09;6.27;;;5.67;;
20294;SDS011;10306;52.128;5.208;2023-02-08T13:03:53;6.47;;;5.97;;
20294;SDS011;10306;52.128;5.208;2023-02-08T13:06:22;6.25;;;5.80;;
20294;SDS011;10306;52.128;5.208;2023-02-08T13:08:56;6.30;;;5.80;;
20294;SDS011;10306;52.128;5.208;2023-02-08T13:11:29;6.40;;;5.90;;
20294;SDS011;10306;52.128;5.208;2023-02-08T13:14:00;6.03;;;5.60;;
20294;SDS011;10306;52.128;5.208;2023-02-08T13:16:30;6.70;;;5.97;;
20294;SDS011;10306;52.128;5.208;2023-02-08T13:21:28;5.80;;;5.30;;
20294;SDS011;10306;52.128;5.208;2023-02-08T13:23:56;6.37;;;5.77;;
20294;SDS011;10306;52.128;5.208;2023-02-08T13:26:24;5.80;;;5.30;;
20294;SDS011;10306;52.128;5.208;2023-02-08T13:28:53;5.67;;;5.13;;
20294;SDS011;10306;52.128;5.208;2023-02-08T13:31:21;5.63;;;5.13;;
20294;SDS011;10306;52.128;5.208;2023-02-08T13:33:50;5.93;;;5.33;;
20294;SDS011;10306;52.128;5.208;2023-02-08T13:36:23;5.80;;;5.30;;
20294;SDS011;10306;52.128;5.208;2023-02-08T13:38:50;5.90;;;5.50;;
20294;SDS011;10306;52.128;5.208;2023-02-08T13:41:21;6.33;;;5.83;;
20294;SDS011;10306;52.128;5.208;2023-02-08T13:46:13;5.60;;;5.20;;
20294;SDS011;10306;52.128;5.208;2023-02-08T13:48:42;6.10;;;5.50;;
20294;SDS011;10306;52.128;5.208;2023-02-08T13:51:53;5.97;;;5.50;;
20294;SDS011;10306;52.128;5.208;2023-02-08T13:59:02;6.30;;;5.73;;
20294;SDS011;10306;52.128;5.208;2023-02-08T14:01:30;5.90;;;5.50;;
20294;SDS011;10306;52.128;5.208;2023-02-08T14:06:35;6.57;;;6.07;;
20294;SDS011;10306;52.128;5.208;2023-02-08T14:16:38;6.47;;;5.97;;
20294;SDS011;10306;52.128;5.208;2023-02-08T14:19:05;6.80;;;6.10;;
20294;SDS011;10306;52.128;5.208;2023-02-08T14:21:48;6.07;;;5.57;;
20294;SDS011;10306;52.128;5.208;2023-02-08T14:24:27;6.82;;;6.22;;
20294;SDS011;10306;52.128;5.208;2023-02-08T14:32:37;5.93;;;5.53;;
20294;SDS011;10306;52.128;5.208;2023-02-08T14:35:08;6.50;;;5.97;;
20294;SDS011;10306;52.128;5.208;2023-02-08T14:37:42;6.50;;;6.00;;
20294;SDS011;10306;52.128;5.208;2023-02-08T14:45:30;6.03;;;5.57;;
20294;SDS011;10306;52.128;5.208;2023-02-08T14:47:59;6.60;;;6.10;;
20294;SDS011;10306;52.128;5.208;2023-02-08T14:50:31;6.47;;;5.83;;
20294;SDS011;10306;52.128;5.208;2023-02-08T14:53:00;6.07;;;5.47;;
20294;SDS011;10306;52.128;5.208;2023-02-08T14:55:31;6.33;;;5.73;;
20294;SDS011;10306;52.128;5.208;2023-02-08T14:58:01;6.10;;;5.60;;
20294;SDS011;10306;52.128;5.208;2023-02-08T15:00:32;8.87;;;6.10;;
20294;SDS011;10306;52.128;5.208;2023-02-08T15:02:58;6.20;;;5.53;;
20294;SDS011;10306;52.128;5.208;2023-02-08T15:05:26;6.17;;;5.63;;
20294;SDS011;10306;52.128;5.208;2023-02-08T15:07:58;6.23;;;5.73;;
20294;SDS011;10306;52.128;5.208;2023-02-08T15:10:26;6.17;;;5.67;;
20294;SDS011;10306;52.128;5.208;2023-02-08T15:12:57;6.03;;;5.43;;
20294;SDS011;10306;52.128;5.208;2023-02-08T15:17:58;6.67;;;6.07;;
20294;SDS011;10306;52.128;5.208;2023-02-08T15:20:28;6.73;;;5.70;;
20294;SDS011;10306;52.128;5.208;2023-02-08T15:22:59;5.87;;;5.47;;
20294;SDS011;10306;52.128;5.208;2023-02-08T15:27:52;6.60;;;6.10;;
20294;SDS011;10306;52.128;5.208;2023-02-08T15:30:27;5.50;;;5.03;;
20294;SDS011;10306;52.128;5.208;2023-02-08T15:32:53;7.07;;;5.83;;
20294;SDS011;10306;52.128;5.208;2023-02-08T15:35:20;6.20;;;5.60;;
20294;SDS011;10306;52.128;5.208;2023-02-08T15:37:48;5.40;;;5.00;;
20294;SDS011;10306;52.128;5.208;2023-02-08T15:40:48;5.63;;;5.13;;
20294;SDS011;10306;52.128;5.208;2023-02-08T15:45:33;5.33;;;4.93;;
20294;SDS011;10306;52.128;5.208;2023-02-08T15:47:59;5.33;;;4.93;;
20294;SDS011;10306;52.128;5.208;2023-02-08T15:50:26;5.93;;;5.43;;
20294;SDS011;10306;52.128;5.208;2023-02-08T15:52:57;5.33;;;4.83;;
20294;SDS011;10306;52.128;5.208;2023-02-08T15:55:23;6.37;;;4.80;;
20294;SDS011;10306;52.128;5.208;2023-02-08T15:57:54;5.87;;;5.27;;
20294;SDS011;10306;52.128;5.208;2023-02-08T16:00:23;4.97;;;4.57;;
20294;SDS011;10306;52.128;5.208;2023-02-08T16:02:54;4.53;;;4.23;;
20294;SDS011;10306;52.128;5.208;2023-02-08T16:05:23;4.20;;;3.90;;
20294;SDS011;10306;52.128;5.208;2023-02-08T16:07:49;4.27;;;3.97;;
20294;SDS011;10306;52.128;5.208;2023-02-08T16:10:20;6.10;;;3.50;;
20294;SDS011;10306;52.128;5.208;2023-02-08T16:12:49;7.23;;;3.70;;
20294;SDS011;10306;52.128;5.208;2023-02-08T16:18:00;3.83;;;3.53;;
20294;SDS011;10306;52.128;5.208;2023-02-08T16:20:27;3.60;;;3.30;;
20294;SDS011;10306;52.128;5.208;2023-02-08T16:23:36;3.23;;;3.03;;
20294;SDS011;10306;52.128;5.208;2023-02-08T16:25:43;3.37;;;3.10;;
20294;SDS011;10306;52.128;5.208;2023-02-08T16:28:23;3.77;;;3.47;;
20294;SDS011;10306;52.128;5.208;2023-02-08T16:30:50;3.40;;;3.10;;
20294;SDS011;10306;52.128;5.208;2023-02-08T16:33:16;4.33;;;3.70;;
20294;SDS011;10306;52.128;5.208;2023-02-08T16:35:43;3.87;;;3.47;;
20294;SDS011;10306;52.128;5.208;2023-02-08T16:38:09;4.07;;;3.67;;